createdAt,value
2019-04-21T00:01:52.128Z,12.53
2019-04-21T00:04:30.071Z,12.27
2019-04-21T00:07:10.372Z,9.33
2019-04-21T00:09:39.637Z,8.97
2019-04-21T00:12:02.406Z,10.17
2019-04-21T00:14:22.668Z,8.67
2019-04-21T00:16:51.077Z,9.57
2019-04-21T00:19:21.147Z,11.33
2019-04-21T00:21:51.143Z,10.73
2019-04-21T00:24:25.114Z,10.23
2019-04-21T00:27:14.497Z,10.63
2019-04-21T00:29:36.710Z,11.07
2019-04-21T00:31:56.848Z,8.47
2019-04-21T00:34:09.549Z,7.90
2019-04-21T00:36:47.369Z,9.60
2019-04-21T00:39:36.350Z,10.67
2019-04-21T00:41:53.736Z,8.90
2019-04-21T00:44:14.269Z,12.10
2019-04-21T00:46:47.691Z,9.77
2019-04-21T00:49:19.664Z,11.07
2019-04-21T00:52:11.345Z,8.90
2019-04-21T00:54:35.874Z,11.80
2019-04-21T00:57:05.734Z,9.47
2019-04-21T00:59:35.343Z,11.27
2019-04-21T01:01:55.456Z,8.33
2019-04-21T01:04:31.851Z,8.53
2019-04-21T01:06:56.088Z,9.23
2019-04-21T01:09:20.708Z,9.57
2019-04-21T01:11:55.043Z,11.10
2019-04-21T01:14:30.226Z,9.10
2019-04-21T01:16:51.354Z,10.47
2019-04-21T01:19:18.313Z,8.87
2019-04-21T01:21:26.201Z,11.43
2019-04-21T01:23:57.778Z,10.07
2019-04-21T01:26:32.787Z,10.23
2019-04-21T01:29:06.041Z,10.00
2019-04-21T01:31:38.963Z,9.67
2019-04-21T01:34:08.726Z,11.43
2019-04-21T01:36:37.035Z,9.70
2019-04-21T01:39:07.936Z,9.60
2019-04-21T01:41:42.817Z,11.70
2019-04-21T01:44:01.158Z,10.33
2019-04-21T01:46:25.629Z,10.27
2019-04-21T01:48:54.154Z,10.97
2019-04-21T01:51:28.134Z,11.33
2019-04-21T01:54:09.239Z,9.37
2019-04-21T01:56:52.343Z,15.13
2019-04-21T01:59:08.939Z,11.50
2019-04-21T02:01:52.736Z,10.73
2019-04-21T02:04:24.450Z,11.43
2019-04-21T02:06:53.179Z,12.03
2019-04-21T02:09:15.496Z,10.83
2019-04-21T02:11:53.384Z,8.47
2019-04-21T02:14:16.736Z,12.40
2019-04-21T02:16:40.473Z,9.43
2019-04-21T02:19:04.387Z,12.00
2019-04-21T02:21:37.033Z,15.03
2019-04-21T02:24:15.207Z,9.47
2019-04-21T02:26:49.022Z,9.23
2019-04-21T02:29:10.125Z,9.13
2019-04-21T02:34:25.271Z,12.00
2019-04-21T02:37:10.047Z,12.40
2019-04-21T02:39:16.623Z,10.23
2019-04-21T02:41:45.640Z,10.20
2019-04-21T02:44:12.410Z,12.50
2019-04-21T02:46:38.553Z,12.47
2019-04-21T02:49:05.919Z,13.07
2019-04-21T02:51:33.798Z,10.23
2019-04-21T02:54:35.978Z,12.07
2019-04-21T02:59:05.289Z,12.77
2019-04-21T03:01:56.805Z,11.90
2019-04-21T03:04:36.205Z,11.67
2019-04-21T03:12:11.177Z,14.33
2019-04-21T03:14:49.992Z,13.83
2019-04-21T03:19:48.219Z,11.43
2019-04-21T03:22:11.858Z,12.27
2019-04-21T03:27:18.666Z,11.60
2019-04-21T03:32:39.900Z,10.87
2019-04-21T03:37:16.971Z,12.73
2019-04-21T03:39:29.333Z,10.93
2019-04-21T03:42:11.346Z,12.57
2019-04-21T03:44:26.725Z,12.00
2019-04-21T03:49:29.887Z,11.50
2019-04-21T03:51:57.324Z,13.30
2019-04-21T03:54:22.345Z,13.67
2019-04-21T03:59:12.783Z,11.63
2019-04-21T04:04:47.543Z,15.93
2019-04-21T04:17:26.099Z,13.73
2019-04-21T04:20:04.257Z,12.60
2019-04-21T04:22:31.903Z,16.37
2019-04-21T04:25:05.179Z,15.07
2019-04-21T04:30:01.128Z,14.40
2019-04-21T04:32:31.931Z,14.17
2019-04-21T04:45:41.718Z,16.50
2019-04-21T04:48:07.505Z,14.00
2019-04-21T04:53:12.862Z,14.97
2019-04-21T04:55:41.030Z,15.50
2019-04-21T05:00:58.090Z,19.30
2019-04-21T05:03:03.372Z,15.23
2019-04-21T05:05:38.499Z,15.10
2019-04-21T05:10:38.550Z,12.93
2019-04-21T05:12:58.765Z,13.00
2019-04-21T05:17:50.731Z,15.47
2019-04-21T05:20:17.132Z,15.93
2019-04-21T05:22:48.925Z,13.70
2019-04-21T05:25:08.549Z,12.73
2019-04-21T05:27:40.989Z,15.83
2019-04-21T05:30:34.159Z,14.17
2019-04-21T05:33:20.846Z,15.47
2019-04-21T05:36:11.007Z,15.03
2019-04-21T05:38:56.653Z,13.67
2019-04-21T05:41:22.092Z,14.27
2019-04-21T05:43:56.345Z,13.20
2019-04-21T05:46:32.384Z,12.23
2019-04-21T05:49:00.848Z,11.40
2019-04-21T05:51:28.792Z,14.13
2019-04-21T05:54:08.797Z,10.37
2019-04-21T05:56:32.148Z,13.87
2019-04-21T05:58:57.261Z,13.97
2019-04-21T06:02:02.560Z,14.40
2019-04-21T06:04:01.762Z,12.50
2019-04-21T06:06:26.188Z,16.10
2019-04-21T06:08:47.807Z,13.23
2019-04-21T06:13:55.004Z,14.97
2019-04-21T06:16:23.167Z,13.10
2019-04-21T06:18:52.980Z,11.67
2019-04-21T06:21:19.017Z,14.33
2019-04-21T06:23:59.187Z,14.57
2019-04-21T06:26:26.868Z,16.53
2019-04-21T06:28:45.315Z,15.80
2019-04-21T06:31:20.214Z,14.80
2019-04-21T06:33:45.974Z,17.33
2019-04-21T06:39:04.668Z,14.57
2019-04-21T06:46:26.255Z,16.80
2019-04-21T06:48:56.990Z,14.93
2019-04-21T06:51:23.702Z,14.37
2019-04-21T06:53:54.306Z,13.43
2019-04-21T06:56:21.849Z,13.30
2019-04-21T06:58:51.486Z,15.87
2019-04-21T07:01:26.527Z,13.57
2019-04-21T07:03:48.660Z,15.20
2019-04-21T07:06:12.529Z,16.50
2019-04-21T07:08:59.375Z,15.80
2019-04-21T07:11:14.040Z,18.47
2019-04-21T07:13:41.542Z,15.00
2019-04-21T07:16:15.326Z,14.63
2019-04-21T07:18:44.101Z,15.70
2019-04-21T07:21:06.435Z,14.83
2019-04-21T07:23:48.982Z,20.17
2019-04-21T07:26:10.496Z,18.17
2019-04-21T07:28:45.902Z,14.47
2019-04-21T07:31:09.840Z,17.23
2019-04-21T07:36:05.039Z,15.00
2019-04-21T07:38:36.602Z,13.63
2019-04-21T07:40:56.741Z,14.07
2019-04-21T07:43:23.346Z,15.10
2019-04-21T07:45:55.378Z,14.43
2019-04-21T07:48:31.326Z,13.67
2019-04-21T07:51:28.819Z,16.73
2019-04-21T07:53:55.349Z,16.37
2019-04-21T07:56:09.374Z,13.70
2019-04-21T07:58:53.784Z,14.10
2019-04-21T08:03:54.227Z,16.77
2019-04-21T08:06:21.906Z,15.10
2019-04-21T08:08:49.000Z,14.87
2019-04-21T08:11:16.290Z,14.73
2019-04-21T08:13:47.307Z,15.73
2019-04-21T08:16:17.508Z,18.77
2019-04-21T08:18:58.262Z,13.20
2019-04-21T08:21:10.997Z,15.07
2019-04-21T08:23:54.192Z,23.53
2019-04-21T08:26:08.002Z,15.37
2019-04-21T08:28:40.209Z,16.07
2019-04-21T08:31:09.560Z,17.27
2019-04-21T08:33:38.259Z,17.53
2019-04-21T08:36:19.377Z,15.40
2019-04-21T08:38:34.476Z,15.97
2019-04-21T08:41:21.326Z,16.70
2019-04-21T08:43:42.458Z,17.37
2019-04-21T08:46:00.050Z,20.07
2019-04-21T08:48:29.069Z,17.67
2019-04-21T08:51:18.536Z,16.50
2019-04-21T08:56:21.757Z,15.60
2019-04-21T08:59:13.811Z,17.53
2019-04-21T09:01:46.578Z,18.50
2019-04-21T09:04:15.853Z,17.00
2019-04-21T09:07:04.615Z,17.90
2019-04-21T09:09:16.746Z,19.23
2019-04-21T09:11:40.462Z,18.83
2019-04-21T09:14:13.137Z,18.13
2019-04-21T09:16:39.655Z,15.43
2019-04-21T09:19:07.080Z,15.77
2019-04-21T09:21:46.387Z,16.13
2019-04-21T09:24:14.801Z,17.77
2019-04-21T09:26:33.999Z,18.67
2019-04-21T09:29:00.458Z,20.53
2019-04-21T09:31:24.095Z,17.07
2019-04-21T09:33:52.572Z,18.63
2019-04-21T09:36:22.080Z,16.07
2019-04-21T09:38:56.101Z,13.70
2019-04-21T09:41:22.904Z,19.67
2019-04-21T09:43:52.130Z,16.17
2019-04-21T09:46:18.527Z,16.97
2019-04-21T09:48:53.779Z,15.10
2019-04-21T09:51:13.856Z,15.83
2019-04-21T09:53:43.652Z,16.57
2019-04-21T09:56:16.039Z,14.47
2019-04-21T09:58:44.431Z,14.10
2019-04-21T10:01:19.722Z,16.57
2019-04-21T10:03:43.426Z,15.28
2019-04-21T10:06:07.024Z,13.40
2019-04-21T10:08:34.907Z,14.07
2019-04-21T10:11:05.294Z,25.65
2019-04-21T10:13:32.465Z,13.63
2019-04-21T10:16:15.236Z,14.37
2019-04-21T10:18:44.144Z,18.33
2019-04-21T10:21:10.927Z,15.67
2019-04-21T10:23:39.452Z,12.30
2019-04-21T10:26:08.566Z,12.07
2019-04-21T10:28:37.251Z,14.13
2019-04-21T10:31:04.985Z,12.83
2019-04-21T10:33:34.506Z,16.00
2019-04-21T10:36:01.788Z,14.47
2019-04-21T10:38:37.093Z,14.97
2019-04-21T10:40:59.251Z,12.73
2019-04-21T10:43:27.470Z,14.00
2019-04-21T10:45:54.882Z,15.60
2019-04-21T10:48:23.331Z,13.68
2019-04-21T10:50:50.474Z,13.33
2019-04-21T10:53:27.066Z,12.50
2019-04-21T10:56:09.668Z,17.70
2019-04-21T10:58:26.713Z,13.60
2019-04-21T11:01:04.497Z,15.38
2019-04-21T11:03:40.810Z,12.93
2019-04-21T11:06:08.671Z,13.70
2019-04-21T11:08:41.636Z,13.45
2019-04-21T11:11:07.869Z,16.25
2019-04-21T11:13:36.995Z,15.40
2019-04-21T11:16:05.369Z,14.68
2019-04-21T11:18:33.867Z,14.05
2019-04-21T11:21:02.999Z,16.75
2019-04-21T11:23:31.122Z,14.43
2019-04-21T11:26:00.150Z,12.43
2019-04-21T11:28:29.527Z,14.93
2019-04-21T11:30:57.885Z,13.67
2019-04-21T11:33:28.860Z,21.37
2019-04-21T11:35:57.292Z,16.05
2019-04-21T11:38:33.545Z,14.00
2019-04-21T11:41:00.059Z,19.45
2019-04-21T11:43:28.171Z,13.15
2019-04-21T11:45:55.843Z,13.30
2019-04-21T11:48:28.574Z,15.83
2019-04-21T11:50:57.276Z,15.48
2019-04-21T11:53:25.231Z,13.78
2019-04-21T11:55:53.938Z,16.65
2019-04-21T11:58:21.466Z,12.23
2019-04-21T12:00:53.893Z,12.90
2019-04-21T12:03:22.196Z,13.05
2019-04-21T12:05:49.192Z,12.73
2019-04-21T12:08:24.910Z,16.67
2019-04-21T12:10:45.526Z,12.13
2019-04-21T12:13:12.568Z,13.32
2019-04-21T12:15:39.213Z,11.85
2019-04-21T12:18:06.086Z,11.17
2019-04-21T12:20:33.632Z,13.22
2019-04-21T12:23:10.500Z,13.48
2019-04-21T12:25:42.944Z,9.18
2019-04-21T12:28:10.282Z,9.85
2019-04-21T12:30:37.805Z,10.93
2019-04-21T12:33:14.213Z,13.22
2019-04-21T12:35:41.867Z,10.53
2019-04-21T12:38:10.973Z,10.45
2019-04-21T12:40:39.486Z,9.43
2019-04-21T12:43:08.470Z,8.88
2019-04-21T12:45:35.912Z,10.58
2019-04-21T12:48:04.274Z,10.48
2019-04-21T12:50:32.086Z,11.38
2019-04-21T12:52:59.899Z,12.75
2019-04-21T12:55:31.655Z,11.60
2019-04-21T12:57:57.261Z,13.20
2019-04-21T13:00:24.807Z,12.07
2019-04-21T13:02:53.887Z,13.20
2019-04-21T13:05:21.978Z,15.93
2019-04-21T13:07:49.264Z,10.53
2019-04-21T13:10:18.116Z,13.03
2019-04-21T13:12:46.021Z,12.80
2019-04-21T13:15:15.703Z,11.78
2019-04-21T13:17:45.743Z,11.55
2019-04-21T13:20:11.967Z,13.25
2019-04-21T13:22:40.215Z,14.73
2019-04-21T13:25:09.638Z,14.50
2019-04-21T13:27:36.748Z,13.55
2019-04-21T13:30:06.241Z,15.68
2019-04-21T13:32:33.428Z,15.48
2019-04-21T13:35:01.209Z,15.35
2019-04-21T13:37:30.421Z,13.13
2019-04-21T13:40:34.520Z,14.33
2019-04-21T13:42:51.665Z,12.28
2019-04-21T13:45:16.145Z,13.95
2019-04-21T13:47:43.444Z,15.03
2019-04-21T13:50:11.289Z,14.73
2019-04-21T13:52:38.569Z,15.30
2019-04-21T13:55:07.614Z,13.40
2019-04-21T13:57:34.715Z,12.58
2019-04-21T14:00:01.744Z,13.97
2019-04-21T14:02:29.030Z,11.97
2019-04-21T14:04:56.343Z,14.13
2019-04-21T14:07:24.047Z,12.17
2019-04-21T14:09:57.886Z,16.03
2019-04-21T14:12:21.853Z,12.83
2019-04-21T14:14:50.422Z,14.90
2019-04-21T14:17:21.352Z,17.27
2019-04-21T14:19:50.970Z,14.13
2019-04-21T14:22:20.119Z,14.53
2019-04-21T14:24:48.037Z,14.23
2019-04-21T14:27:16.357Z,12.10
2019-04-21T14:29:46.164Z,11.07
2019-04-21T14:32:14.032Z,11.00
2019-04-21T14:34:42.219Z,10.43
2019-04-21T14:37:10.761Z,13.13
2019-04-21T14:39:51.728Z,14.43
2019-04-21T14:42:09.816Z,9.47
2019-04-21T14:44:40.803Z,14.70
2019-04-21T14:47:46.389Z,11.80
2019-04-21T14:50:34.881Z,10.17
2019-04-21T14:53:20.104Z,10.60
2019-04-21T14:55:49.017Z,11.47
2019-04-21T14:58:17.219Z,10.83
2019-04-21T15:01:02.039Z,10.17
2019-04-21T15:03:32.069Z,10.80
2019-04-21T15:05:59.023Z,10.13
2019-04-21T15:08:27.031Z,12.67
2019-04-21T15:10:54.914Z,12.27
2019-04-21T15:13:23.700Z,10.27
2019-04-21T15:15:52.103Z,10.23
2019-04-21T15:18:19.148Z,17.47
2019-04-21T15:20:49.142Z,11.30
2019-04-21T15:23:17.907Z,10.23
2019-04-21T15:25:46.063Z,11.03
2019-04-21T15:28:13.789Z,8.93
2019-04-21T15:30:42.429Z,9.23
2019-04-21T15:33:10.669Z,10.17
2019-04-21T15:35:37.537Z,9.17
2019-04-21T15:38:04.560Z,10.10
2019-04-21T15:40:41.742Z,11.80
2019-04-21T15:43:02.417Z,9.10
2019-04-21T15:45:30.603Z,9.00
2019-04-21T15:47:58.237Z,11.17
2019-04-21T15:50:38.020Z,8.43
2019-04-21T15:53:07.739Z,13.47
2019-04-21T15:55:54.967Z,8.60
2019-04-21T15:58:36.486Z,9.67
2019-04-21T16:01:10.510Z,7.77
2019-04-21T16:03:38.565Z,7.80
2019-04-21T16:06:07.630Z,11.47
2019-04-21T16:08:39.524Z,8.27
2019-04-21T16:11:10.834Z,8.83
2019-04-21T16:13:37.347Z,8.63
2019-04-21T16:16:04.486Z,13.33
2019-04-21T16:18:32.164Z,10.07
2019-04-21T16:21:00.037Z,8.00
2019-04-21T16:23:26.835Z,7.33
2019-04-21T16:25:57.007Z,8.47
2019-04-21T16:28:24.029Z,9.53
2019-04-21T16:30:52.209Z,7.90
2019-04-21T16:33:20.996Z,8.93
2019-04-21T16:35:49.461Z,7.30
2019-04-21T16:38:17.535Z,8.17
2019-04-21T16:40:52.544Z,8.07
2019-04-21T16:43:16.385Z,8.03
2019-04-21T16:45:46.566Z,6.47
2019-04-21T16:48:15.093Z,6.40
2019-04-21T16:50:45.685Z,7.00
2019-04-21T16:53:28.239Z,11.30
2019-04-21T16:56:06.936Z,10.07
2019-04-21T16:58:48.420Z,9.77
2019-04-21T17:01:22.373Z,11.80
2019-04-21T17:03:50.500Z,9.67
2019-04-21T17:06:17.709Z,10.47
2019-04-21T17:08:45.030Z,8.63
2019-04-21T17:11:18.733Z,7.63
2019-04-21T17:13:42.124Z,6.57
2019-04-21T17:16:36.091Z,8.70
2019-04-21T17:18:51.342Z,7.17
2019-04-21T17:21:08.751Z,5.87
2019-04-21T17:23:37.683Z,7.57
2019-04-21T17:26:05.402Z,6.43
2019-04-21T17:28:32.624Z,7.63
2019-04-21T17:31:00.123Z,7.07
2019-04-21T17:33:29.007Z,6.07
2019-04-21T17:35:56.785Z,7.33
2019-04-21T17:38:25.941Z,9.90
2019-04-21T17:40:54.225Z,6.73
2019-04-21T17:43:21.757Z,6.00
2019-04-21T17:45:48.964Z,7.47
2019-04-21T17:48:18.502Z,5.37
2019-04-21T17:50:55.850Z,5.70
2019-04-21T17:53:49.481Z,5.60
2019-04-21T17:56:47.831Z,6.60
2019-04-21T17:59:02.912Z,4.50
2019-04-21T18:01:33.942Z,5.00
2019-04-21T18:04:05.168Z,7.40
2019-04-21T18:06:38.051Z,6.03
2019-04-21T18:09:05.885Z,4.50
2019-04-21T18:11:36.732Z,5.97
2019-04-21T18:13:47.186Z,7.33
2019-04-21T18:16:26.703Z,5.30
2019-04-21T18:18:46.390Z,4.13
2019-04-21T18:21:26.947Z,5.00
2019-04-21T18:24:05.697Z,4.13
2019-04-21T18:26:37.590Z,6.70
2019-04-21T18:28:57.304Z,6.07
2019-04-21T18:31:26.975Z,6.13
2019-04-21T18:34:05.031Z,5.83
2019-04-21T18:36:48.820Z,3.33
2019-04-21T18:39:46.329Z,4.97
2019-04-21T18:42:26.521Z,3.80
2019-04-21T18:47:59.564Z,7.00
2019-04-21T18:50:45.846Z,4.03
2019-04-21T18:53:23.860Z,3.27
2019-04-21T18:55:45.123Z,3.70
2019-04-21T18:58:11.829Z,4.07
2019-04-21T19:00:40.493Z,4.80
2019-04-21T19:03:09.954Z,3.67
2019-04-21T19:05:34.426Z,3.27
2019-04-21T19:08:20.963Z,6.73
2019-04-21T19:10:47.960Z,3.60
2019-04-21T19:13:38.388Z,2.43
2019-04-21T19:16:07.556Z,3.27
2019-04-21T19:18:32.584Z,3.27
2019-04-21T19:20:46.269Z,3.23
2019-04-21T19:23:10.127Z,4.13
2019-04-21T19:25:42.136Z,2.90
2019-04-21T19:28:11.807Z,6.07
2019-04-21T19:30:49.963Z,3.10
2019-04-21T19:33:11.645Z,3.00
2019-04-21T19:35:25.518Z,2.30
2019-04-21T19:37:59.184Z,4.37
2019-04-21T19:40:44.911Z,2.57
2019-04-21T19:42:58.195Z,4.20
2019-04-21T19:45:35.478Z,3.63
2019-04-21T19:48:10.889Z,3.50
2019-04-21T19:50:41.203Z,2.43
2019-04-21T19:53:02.523Z,3.63
2019-04-21T19:55:20.080Z,2.13
2019-04-21T19:57:47.243Z,2.63
2019-04-21T20:00:15.947Z,2.00
2019-04-21T20:02:42.895Z,2.40
2019-04-21T20:05:15.404Z,2.20
2019-04-21T20:07:56.304Z,3.17
2019-04-21T20:10:30.786Z,2.30
2019-04-21T20:12:57.039Z,5.87
2019-04-21T20:15:30.249Z,2.13
2019-04-21T20:17:50.332Z,3.77
2019-04-21T20:20:04.960Z,4.33
2019-04-21T20:22:36.806Z,2.73
2019-04-21T20:25:08.249Z,4.90
2019-04-21T20:27:38.656Z,2.57
2019-04-21T20:30:15.817Z,2.90
2019-04-21T20:32:53.382Z,3.90
2019-04-21T20:35:21.257Z,2.83
2019-04-21T20:37:42.432Z,2.80
2019-04-21T20:40:02.253Z,4.90
2019-04-21T20:42:40.263Z,4.63
2019-04-21T20:45:28.996Z,2.10
2019-04-21T20:47:33.201Z,2.90
2019-04-21T20:50:11.433Z,3.20
2019-04-21T20:52:43.396Z,4.00
2019-04-21T20:55:02.238Z,2.60
2019-04-21T20:57:37.916Z,7.17
2019-04-21T21:00:09.109Z,9.03
2019-04-21T21:02:40.321Z,8.93
2019-04-21T21:04:55.005Z,5.53
2019-04-21T21:07:40.234Z,9.57
2019-04-21T21:10:04.452Z,6.97
2019-04-21T21:12:40.717Z,5.80
2019-04-21T21:14:53.057Z,7.87
2019-04-21T21:17:39.190Z,5.60
2019-04-21T21:20:02.612Z,7.27
2019-04-21T21:22:16.003Z,5.53
2019-04-21T21:24:50.523Z,5.93
2019-04-21T21:27:19.649Z,6.30
2019-04-21T21:29:50.207Z,8.43
2019-04-21T21:32:25.886Z,8.30
2019-04-21T21:34:47.448Z,6.60
2019-04-21T21:37:21.252Z,6.27
2019-04-21T21:39:51.925Z,4.70
2019-04-21T21:41:58.621Z,4.90
2019-04-21T21:44:26.166Z,6.50
2019-04-21T21:47:04.372Z,3.20
2019-04-21T21:49:33.571Z,3.83
2019-04-21T21:51:59.254Z,3.17
2019-04-21T21:54:17.917Z,3.47
2019-04-21T21:56:44.757Z,5.27
2019-04-21T21:59:16.723Z,6.53
2019-04-21T22:02:05.233Z,6.50
2019-04-21T22:04:35.513Z,6.13
2019-04-21T22:07:07.277Z,7.00
2019-04-21T22:09:30.373Z,5.63
2019-04-21T22:12:01.405Z,6.67
2019-04-21T22:14:34.054Z,7.03
2019-04-21T22:17:10.951Z,5.43
2019-04-21T22:19:46.831Z,4.33
2019-04-21T22:22:09.263Z,4.87
2019-04-21T22:24:35.178Z,4.70
2019-04-21T22:26:49.361Z,3.77
2019-04-21T22:29:16.365Z,3.03
2019-04-21T22:31:44.599Z,5.90
2019-04-21T22:34:14.220Z,5.97
2019-04-21T22:36:48.840Z,6.20
2019-04-21T22:39:28.248Z,9.27
2019-04-21T22:41:43.726Z,2.93
2019-04-21T22:44:10.223Z,4.03
2019-04-21T22:46:38.141Z,6.80
2019-04-21T22:49:08.793Z,2.90
2019-04-21T22:51:38.365Z,4.37
2019-04-21T22:54:04.026Z,3.37
2019-04-21T22:56:33.616Z,3.13
2019-04-21T22:59:03.078Z,3.93
2019-04-21T23:01:35.064Z,5.50
2019-04-21T23:04:00.687Z,3.33
2019-04-21T23:06:34.322Z,5.43
2019-04-21T23:09:01.090Z,4.50
2019-04-21T23:11:34.945Z,3.17
2019-04-21T23:14:02.511Z,3.87
2019-04-21T23:16:31.140Z,4.63
2019-04-21T23:19:11.005Z,4.10
2019-04-21T23:21:47.653Z,5.17
2019-04-21T23:24:08.506Z,3.30
2019-04-21T23:26:41.006Z,2.93
2019-04-21T23:29:07.573Z,4.10
2019-04-21T23:31:41.860Z,6.07
2019-04-21T23:33:48.381Z,5.93
2019-04-21T23:36:22.356Z,5.43
2019-04-21T23:38:48.522Z,6.03
2019-04-21T23:41:15.276Z,5.17
2019-04-21T23:43:44.858Z,4.37
2019-04-21T23:46:19.804Z,4.67
2019-04-21T23:48:57.988Z,4.70
2019-04-21T23:51:17.191Z,3.97
2019-04-21T23:53:37.433Z,3.90
2019-04-21T23:56:05.454Z,4.27
2019-04-21T23:58:36.254Z,4.30
